Aviation Digital Data Service (ADDS)

Output produced by METARs form (0828 UTC 23 January 2017)
found at http://aviationweather.gov/adds/metars/
 
KEKN 230524Z 2306/2406 11010G18KT 6SM -RA OVC040 
     FM230800 11011G18KT 6SM -RA OVC025 
     FM230900 11013G20KT 4SM -RA OVC017 
     FM231300 09012G22KT 3SM -RA OVC015 
     FM232000 08010G16KT 4SM -RA OVC028 
     FM240100 36005KT 4SM -RA OVC008